DMM weather

King Fahd International Airport
Ad Dammam, Ash Sharqiyah Region, Saudi Arabia

Public forecast

Using degrees Celsius for public forecast. Weather courtesy of forecast.io.

METAR (pilot weather report)

Retrieved 2019/05/21 03:00 UTC (59 minutes ago):

OEDF 210300Z 34013KT 7000 NSC 28/12 Q1010 NOSIG

TAF (pilot weather forecast)

Forecast is more than 12 hours old.

Retrieved 2019/05/20 00:12 UTC (1 day ago):

TAF TAF OEDF 202050Z 2100/2206 VRB05KT 8000 FEW040 BKN100 PROB30 TEMPO 2100/2106 VRB15G25KT 4000 TS BLDU FEW030CB BECMG 2106/2108 09015KT NSC